Time;durP1;ratioP1;P1;durP2;ratioP2;P2;SDS_P1;SDS_P2;PMS_P1;PMS_P2;Temp;Humidity;BMP_temperature;BMP_pressure;BME280_temperature;BME280_humidity;BME280_pressure;Samples;Min_cycle;Max_cycle;Signal;HPM_P1;HPM_P2
2024/01/13 00:00:11;;;;;;;44.53;21.40;;;;;;;;;;5045748;28;20125;-65
2024/01/13 00:02:36;;;;;;;48.33;20.88;;;;;;;;;;5043140;28;20055;-64
2024/01/13 00:05:01;;;;;;;40.63;20.35;;;;;;;;;;5046211;28;20044;-64
2024/01/13 00:07:26;;;;;;;42.00;20.23;;;;;;;;;;5041420;28;20612;-64
2024/01/13 00:09:52;;;;;;;38.42;20.08;;;;;;;;;;5044549;28;20058;-63
2024/01/13 00:12:17;;;;;;;41.30;20.50;;;;;;;;;;5045806;28;20896;-64
2024/01/13 00:14:42;;;;;;;43.00;20.08;;;;;;;;;;5044020;28;20952;-64
2024/01/13 00:17:08;;;;;;;42.45;21.15;;;;;;;;;;5015024;28;20937;-64
2024/01/13 00:19:33;;;;;;;47.40;20.92;;;;;;;;;;5044336;28;20039;-64
2024/01/13 00:21:58;;;;;;;47.67;21.17;;;;;;;;;;5040819;28;20806;-64
2024/01/13 00:24:23;;;;;;;42.65;20.77;;;;;;;;;;5040747;28;21187;-64
2024/01/13 00:26:49;;;;;;;40.72;21.35;;;;;;;;;;5043820;28;20865;-64
2024/01/13 00:29:14;;;;;;;38.67;21.88;;;;;;;;;;5047703;28;20878;-64
2024/01/13 00:31:39;;;;;;;36.58;20.52;;;;;;;;;;5043590;28;20914;-64
2024/01/13 00:34:04;;;;;;;35.10;21.73;;;;;;;;;;5063055;28;20031;-64
2024/01/13 00:36:30;;;;;;;41.67;20.50;;;;;;;;;;5091922;28;20024;-64
2024/01/13 00:38:55;;;;;;;44.23;21.80;;;;;;;;;;5091547;28;20020;-64
2024/01/13 00:41:20;;;;;;;37.70;20.55;;;;;;;;;;5092276;28;20355;-64
2024/01/13 00:43:47;;;;;;;39.10;21.38;;;;;;;;;;5091807;28;20016;-64
2024/01/13 00:46:12;;;;;;;49.92;20.17;;;;;;;;;;5091508;28;20478;-64
2024/01/13 00:48:37;;;;;;;40.85;21.13;;;;;;;;;;5085762;28;20042;-64
2024/01/13 00:51:02;;;;;;;32.15;18.90;;;;;;;;;;5090871;28;20024;-64
2024/01/13 00:53:28;;;;;;;41.55;20.15;;;;;;;;;;5087363;28;20019;-64
2024/01/13 00:55:53;;;;;;;31.95;18.55;;;;;;;;;;5089975;28;20016;-64
2024/01/13 00:58:18;;;;;;;37.83;19.90;;;;;;;;;;5091411;28;20016;-64
2024/01/13 01:00:44;;;;;;;42.47;21.83;;;;;;;;;;5090691;28;20071;-64
2024/01/13 01:03:09;;;;;;;40.40;20.08;;;;;;;;;;5091281;28;20477;-64
2024/01/13 01:05:34;;;;;;;45.42;21.25;;;;;;;;;;5091857;28;20020;-64
2024/01/13 01:07:59;;;;;;;49.47;21.47;;;;;;;;;;5090457;28;20024;-64
2024/01/13 01:10:24;;;;;;;35.70;20.48;;;;;;;;;;5090701;28;20278;-64
2024/01/13 01:12:50;;;;;;;42.95;21.92;;;;;;;;;;5090380;28;20086;-64
2024/01/13 01:15:15;;;;;;;38.28;20.65;;;;;;;;;;5087643;28;20024;-64
2024/01/13 01:17:40;;;;;;;35.50;20.63;;;;;;;;;;5089502;28;20038;-64
2024/01/13 01:20:06;;;;;;;49.97;21.40;;;;;;;;;;5056504;28;20099;-65
2024/01/13 01:22:31;;;;;;;40.83;20.67;;;;;;;;;;5091060;28;20044;-64
2024/01/13 01:24:56;;;;;;;42.05;21.05;;;;;;;;;;5090698;28;20115;-64
2024/01/13 01:27:21;;;;;;;34.80;20.75;;;;;;;;;;5091874;28;20458;-64
2024/01/13 01:29:47;;;;;;;34.80;19.90;;;;;;;;;;5048967;28;20181;-64
2024/01/13 01:32:12;;;;;;;40.55;20.63;;;;;;;;;;5045086;28;20024;-64
2024/01/13 01:34:37;;;;;;;39.53;20.60;;;;;;;;;;5046304;28;20052;-64
2024/01/13 01:37:03;;;;;;;43.08;22.05;;;;;;;;;;5039121;28;20878;-64
2024/01/13 01:39:28;;;;;;;40.13;21.63;;;;;;;;;;5046901;28;20885;-64
2024/01/13 01:41:53;;;;;;;38.35;19.95;;;;;;;;;;5041653;28;20867;-64
2024/01/13 01:44:18;;;;;;;37.85;21.10;;;;;;;;;;5045313;28;20297;-64
2024/01/13 01:46:44;;;;;;;37.67;18.70;;;;;;;;;;5045975;28;20034;-64
2024/01/13 01:49:11;;;;;;;38.85;21.70;;;;;;;;;;5046886;28;20063;-64
2024/01/13 01:51:36;;;;;;;40.67;20.15;;;;;;;;;;5045296;28;20043;-64
2024/01/13 01:54:02;;;;;;;36.00;19.33;;;;;;;;;;5047241;28;20031;-64
2024/01/13 01:56:28;;;;;;;38.13;20.80;;;;;;;;;;5047635;28;20825;-63
2024/01/13 01:58:54;;;;;;;41.00;22.70;;;;;;;;;;5037013;28;20135;-63
2024/01/13 02:01:21;;;;;;;49.03;20.65;;;;;;;;;;5044944;28;20139;-65
2024/01/13 02:03:46;;;;;;;37.83;22.05;;;;;;;;;;5035382;28;20040;-65
2024/01/13 02:06:12;;;;;;;39.95;19.80;;;;;;;;;;5048055;28;20859;-65
2024/01/13 02:08:37;;;;;;;39.63;21.55;;;;;;;;;;5047340;28;20028;-65
2024/01/13 02:11:02;;;;;;;33.83;19.05;;;;;;;;;;5046824;28;20020;-64
2024/01/13 02:13:28;;;;;;;39.47;21.13;;;;;;;;;;5045698;28;20036;-65
2024/01/13 02:15:53;;;;;;;42.67;19.65;;;;;;;;;;5042833;28;20131;-65
2024/01/13 02:18:18;;;;;;;42.38;22.08;;;;;;;;;;5089657;28;20024;-65
2024/01/13 02:20:44;;;;;;;37.67;19.35;;;;;;;;;;5094110;28;20512;-65
2024/01/13 02:23:09;;;;;;;38.17;20.83;;;;;;;;;;5086595;28;20032;-67
2024/01/13 02:25:34;;;;;;;38.83;20.08;;;;;;;;;;5088534;28;20035;-66
2024/01/13 02:27:59;;;;;;;32.78;18.73;;;;;;;;;;5090584;28;20027;-66
2024/01/13 02:30:25;;;;;;;39.25;20.33;;;;;;;;;;5074941;28;20035;-65
2024/01/13 02:32:50;;;;;;;32.03;18.75;;;;;;;;;;5091726;28;20131;-66
2024/01/13 02:35:15;;;;;;;35.30;19.52;;;;;;;;;;5093627;28;20117;-66
2024/01/13 02:37:40;;;;;;;32.08;20.15;;;;;;;;;;5092784;28;20024;-66
2024/01/13 02:40:09;;;;;;;41.42;19.00;;;;;;;;;;5085474;28;20032;-66
2024/01/13 02:42:34;;;;;;;37.90;20.65;;;;;;;;;;5092144;28;20652;-66
2024/01/13 02:44:59;;;;;;;38.75;20.15;;;;;;;;;;5088282;28;20099;-66
2024/01/13 02:47:29;;;;;;;38.47;20.27;;;;;;;;;;5093156;28;20089;-66
2024/01/13 02:49:54;;;;;;;44.28;19.52;;;;;;;;;;5067502;28;20274;-66
2024/01/13 02:52:19;;;;;;;44.42;21.42;;;;;;;;;;5049715;28;20020;-66
2024/01/13 02:54:44;;;;;;;40.28;19.10;;;;;;;;;;5045135;28;20024;-67
2024/01/13 02:57:09;;;;;;;36.70;18.02;;;;;;;;;;5049033;28;20123;-67
2024/01/13 02:59:35;;;;;;;43.28;20.10;;;;;;;;;;5044468;28;20952;-65
2024/01/13 03:02:00;;;;;;;37.47;20.08;;;;;;;;;;5043459;28;20886;-66
2024/01/13 03:04:25;;;;;;;37.03;19.58;;;;;;;;;;5044864;28;20048;-66
2024/01/13 03:06:50;;;;;;;40.60;20.10;;;;;;;;;;5045704;28;20109;-65
2024/01/13 03:09:16;;;;;;;31.57;19.03;;;;;;;;;;5044995;28;20143;-65
2024/01/13 03:11:41;;;;;;;39.35;19.48;;;;;;;;;;5067553;28;20308;-67
2024/01/13 03:14:06;;;;;;;34.50;18.88;;;;;;;;;;5092920;28;20028;-65
2024/01/13 03:16:32;;;;;;;46.10;20.63;;;;;;;;;;5092452;28;20028;-67
2024/01/13 03:18:57;;;;;;;41.90;19.17;;;;;;;;;;5092629;28;20028;-64
2024/01/13 03:21:22;;;;;;;32.23;18.87;;;;;;;;;;5085874;28;20024;-65
2024/01/13 03:23:47;;;;;;;36.08;19.38;;;;;;;;;;5087062;28;20282;-65
2024/01/13 03:26:13;;;;;;;33.22;17.50;;;;;;;;;;5093083;28;20173;-64
2024/01/13 03:28:38;;;;;;;32.10;16.92;;;;;;;;;;5092765;28;20031;-64
2024/01/13 03:31:03;;;;;;;35.42;18.95;;;;;;;;;;5092615;28;20023;-64
2024/01/13 03:33:29;;;;;;;35.20;17.65;;;;;;;;;;5093233;28;20036;-67
2024/01/13 03:35:54;;;;;;;30.67;18.38;;;;;;;;;;5092558;28;20115;-62
2024/01/13 03:38:20;;;;;;;32.72;16.77;;;;;;;;;;5073978;28;20051;-64
2024/01/13 03:40:45;;;;;;;36.08;17.50;;;;;;;;;;5042448;28;20016;-64
2024/01/13 03:43:10;;;;;;;29.60;15.40;;;;;;;;;;5045319;28;20953;-64
2024/01/13 03:45:35;;;;;;;33.40;18.08;;;;;;;;;;5043928;28;20853;-64
2024/01/13 03:48:00;;;;;;;28.60;16.67;;;;;;;;;;5044657;28;20882;-64
2024/01/13 03:50:26;;;;;;;38.33;17.30;;;;;;;;;;5044166;28;21186;-66
2024/01/13 03:52:51;;;;;;;26.40;17.42;;;;;;;;;;5045923;28;20890;-66
2024/01/13 03:55:16;;;;;;;26.63;15.95;;;;;;;;;;5045816;28;20881;-66
2024/01/13 03:57:41;;;;;;;29.45;14.82;;;;;;;;;;5035593;28;20023;-66
2024/01/13 04:00:08;;;;;;;28.33;17.40;;;;;;;;;;5045730;28;20146;-66
2024/01/13 04:02:33;;;;;;;32.78;17.20;;;;;;;;;;5044736;28;20028;-66
2024/01/13 04:04:58;;;;;;;28.25;15.63;;;;;;;;;;5044170;28;20958;-66
2024/01/13 04:07:23;;;;;;;30.38;17.00;;;;;;;;;;5043849;28;20028;-66
2024/01/13 04:09:50;;;;;;;26.07;15.87;;;;;;;;;;5045594;28;20039;-66
2024/01/13 04:12:15;;;;;;;36.45;17.42;;;;;;;;;;5040080;28;20377;-66
2024/01/13 04:14:40;;;;;;;30.77;17.55;;;;;;;;;;5044661;28;20797;-66
2024/01/13 04:17:06;;;;;;;29.55;17.05;;;;;;;;;;5043356;28;20024;-67
2024/01/13 04:19:31;;;;;;;26.70;15.93;;;;;;;;;;5076798;28;20020;-66
2024/01/13 04:21:56;;;;;;;25.07;17.60;;;;;;;;;;5092076;28;20035;-65
2024/01/13 04:24:22;;;;;;;30.33;18.50;;;;;;;;;;5091423;28;20325;-66
2024/01/13 04:26:47;;;;;;;26.88;16.27;;;;;;;;;;5092062;28;20270;-65
2024/01/13 04:29:12;;;;;;;26.63;15.82;;;;;;;;;;5090805;28;20049;-66
2024/01/13 04:31:37;;;;;;;27.80;16.70;;;;;;;;;;5090874;28;20039;-66
2024/01/13 04:34:03;;;;;;;26.37;16.53;;;;;;;;;;5092107;28;20374;-66
2024/01/13 04:36:28;;;;;;;26.17;17.47;;;;;;;;;;5091849;28;20671;-66
2024/01/13 04:38:54;;;;;;;28.40;18.23;;;;;;;;;;5091772;28;20752;-65
2024/01/13 04:41:19;;;;;;;25.38;16.35;;;;;;;;;;5091890;28;20077;-65
2024/01/13 04:43:44;;;;;;;27.92;17.08;;;;;;;;;;5090533;28;20020;-64
2024/01/13 04:46:10;;;;;;;30.60;16.37;;;;;;;;;;5091530;28;20438;-64
2024/01/13 04:48:36;;;;;;;31.05;16.90;;;;;;;;;;5091178;28;20789;-65
2024/01/13 04:51:01;;;;;;;32.20;17.20;;;;;;;;;;5091791;28;20017;-65
2024/01/13 04:53:26;;;;;;;27.55;17.55;;;;;;;;;;5091378;28;20024;-65
2024/01/13 04:55:51;;;;;;;27.05;17.90;;;;;;;;;;5090387;28;20032;-65
2024/01/13 04:58:17;;;;;;;28.98;17.33;;;;;;;;;;5090699;28;20028;-65
2024/01/13 05:00:42;;;;;;;37.70;18.23;;;;;;;;;;5090859;28;20055;-65
2024/01/13 05:03:08;;;;;;;33.03;18.30;;;;;;;;;;5090828;28;20032;-65
2024/01/13 05:05:33;;;;;;;32.53;19.00;;;;;;;;;;5091621;28;20031;-65
2024/01/13 05:07:59;;;;;;;34.33;18.97;;;;;;;;;;5091100;28;20024;-65
2024/01/13 05:10:24;;;;;;;31.13;18.23;;;;;;;;;;5088182;28;20273;-65
2024/01/13 05:12:49;;;;;;;31.40;18.83;;;;;;;;;;5091554;28;20021;-64
2024/01/13 05:15:14;;;;;;;29.97;19.23;;;;;;;;;;5091140;28;20028;-64
2024/01/13 05:17:39;;;;;;;27.50;17.10;;;;;;;;;;5092199;28;20278;-64
2024/01/13 05:20:05;;;;;;;26.90;17.33;;;;;;;;;;5066365;28;20093;-64
2024/01/13 05:22:31;;;;;;;31.77;18.33;;;;;;;;;;5048896;28;20143;-64
2024/01/13 05:24:56;;;;;;;30.58;16.67;;;;;;;;;;5050247;28;20199;-64
2024/01/13 05:27:21;;;;;;;25.88;17.85;;;;;;;;;;5048260;28;20979;-64
2024/01/13 05:29:47;;;;;;;30.65;16.48;;;;;;;;;;5045873;28;20850;-64
2024/01/13 05:32:12;;;;;;;27.15;17.67;;;;;;;;;;5045820;28;20057;-64
2024/01/13 05:34:37;;;;;;;26.65;17.50;;;;;;;;;;5046448;28;20028;-64
2024/01/13 05:37:03;;;;;;;24.38;15.85;;;;;;;;;;5079414;28;20051;-64
2024/01/13 05:39:28;;;;;;;30.15;17.55;;;;;;;;;;5094654;28;20118;-64
2024/01/13 05:41:54;;;;;;;24.30;16.10;;;;;;;;;;5094342;28;20104;-64
2024/01/13 05:44:19;;;;;;;26.08;16.20;;;;;;;;;;5094524;28;20032;-64
2024/01/13 05:46:44;;;;;;;27.30;16.27;;;;;;;;;;5093774;28;20020;-64
2024/01/13 05:49:09;;;;;;;25.08;16.58;;;;;;;;;;5093656;28;20039;-64
2024/01/13 05:51:36;;;;;;;29.45;17.80;;;;;;;;;;5094189;28;20024;-64
2024/01/13 05:54:01;;;;;;;26.30;17.25;;;;;;;;;;5087509;28;20024;-64
2024/01/13 05:56:27;;;;;;;28.35;16.77;;;;;;;;;;5094238;28;20123;-64
2024/01/13 05:58:52;;;;;;;26.27;17.23;;;;;;;;;;5047859;28;20837;-64
2024/01/13 06:01:17;;;;;;;24.60;16.38;;;;;;;;;;5045558;28;20044;-64
2024/01/13 06:03:42;;;;;;;23.17;15.05;;;;;;;;;;5063379;28;20024;-64
2024/01/13 06:06:08;;;;;;;22.00;15.38;;;;;;;;;;5090589;28;20085;-64
2024/01/13 06:08:33;;;;;;;26.92;16.30;;;;;;;;;;5093795;28;20032;-64
2024/01/13 06:11:00;;;;;;;25.33;16.00;;;;;;;;;;5087603;28;20035;-64
2024/01/13 06:13:25;;;;;;;25.55;15.63;;;;;;;;;;5093279;28;20090;-64
2024/01/13 06:15:50;;;;;;;19.33;13.85;;;;;;;;;;5090624;28;20016;-64
2024/01/13 06:18:15;;;;;;;22.08;15.60;;;;;;;;;;5087267;28;20028;-64
2024/01/13 06:20:41;;;;;;;25.52;14.93;;;;;;;;;;5083721;28;20028;-64
2024/01/13 06:23:06;;;;;;;23.05;13.52;;;;;;;;;;5056773;28;20911;-64
2024/01/13 06:25:32;;;;;;;26.08;14.15;;;;;;;;;;5044555;28;20934;-64
2024/01/13 06:27:57;;;;;;;22.50;13.75;;;;;;;;;;5043562;28;20057;-66
2024/01/13 06:30:22;;;;;;;20.45;13.48;;;;;;;;;;5042994;28;20023;-65
2024/01/13 06:32:47;;;;;;;22.92;12.55;;;;;;;;;;5050924;28;20868;-64
2024/01/13 06:35:13;;;;;;;19.38;14.30;;;;;;;;;;5089925;28;20020;-65
2024/01/13 06:37:38;;;;;;;21.65;13.02;;;;;;;;;;5087689;28;20024;-65
2024/01/13 06:40:04;;;;;;;19.13;12.70;;;;;;;;;;5092669;28;20557;-65
2024/01/13 06:42:29;;;;;;;17.65;12.02;;;;;;;;;;5092867;28;20270;-66
2024/01/13 06:44:55;;;;;;;19.05;11.48;;;;;;;;;;5093411;28;20035;-64
2024/01/13 06:47:20;;;;;;;19.52;11.25;;;;;;;;;;5092415;28;20107;-65
2024/01/13 06:49:45;;;;;;;19.80;11.52;;;;;;;;;;5093441;28;20008;-65
2024/01/13 06:52:12;;;;;;;16.13;10.88;;;;;;;;;;5091972;28;20020;-65
2024/01/13 06:54:37;;;;;;;18.13;9.10;;;;;;;;;;5093160;28;20028;-65
2024/01/13 06:57:03;;;;;;;16.05;10.70;;;;;;;;;;5074215;28;20012;-65
2024/01/13 06:59:28;;;;;;;20.50;10.30;;;;;;;;;;5044162;28;20024;-65
2024/01/13 07:01:53;;;;;;;15.43;9.75;;;;;;;;;;5046052;28;20031;-65
2024/01/13 07:04:18;;;;;;;16.48;10.57;;;;;;;;;;5046173;28;20032;-65
2024/01/13 07:06:44;;;;;;;16.05;9.48;;;;;;;;;;5045415;28;20827;-65
2024/01/13 07:09:09;;;;;;;13.10;9.00;;;;;;;;;;5044760;28;20031;-65
2024/01/13 07:11:34;;;;;;;13.68;8.75;;;;;;;;;;5042326;28;20335;-65
2024/01/13 07:13:59;;;;;;;13.82;8.30;;;;;;;;;;5041493;28;20035;-66
2024/01/13 07:16:24;;;;;;;13.88;8.30;;;;;;;;;;5044583;28;20028;-65
2024/01/13 07:18:50;;;;;;;13.70;8.60;;;;;;;;;;5040785;28;21655;-66
2024/01/13 07:21:15;;;;;;;14.55;9.02;;;;;;;;;;5059734;28;20032;-65
2024/01/13 07:23:43;;;;;;;11.85;7.80;;;;;;;;;;5088854;28;20028;-65
2024/01/13 07:26:09;;;;;;;14.05;8.05;;;;;;;;;;5088288;28;20024;-65
2024/01/13 07:28:34;;;;;;;14.10;7.90;;;;;;;;;;5089263;28;20038;-66
2024/01/13 07:30:59;;;;;;;12.33;7.47;;;;;;;;;;5087227;28;20056;-65
2024/01/13 07:33:24;;;;;;;12.65;7.35;;;;;;;;;;5089542;28;20321;-66
2024/01/13 07:35:49;;;;;;;15.55;8.23;;;;;;;;;;5089693;28;20019;-65
2024/01/13 07:38:15;;;;;;;12.20;6.90;;;;;;;;;;5089794;28;20127;-65
2024/01/13 07:40:40;;;;;;;11.95;7.90;;;;;;;;;;5087827;28;20028;-65
2024/01/13 07:43:05;;;;;;;12.88;8.23;;;;;;;;;;5090024;28;20040;-65
2024/01/13 07:45:30;;;;;;;16.42;9.07;;;;;;;;;;5088787;28;20031;-65
2024/01/13 07:47:56;;;;;;;16.20;8.50;;;;;;;;;;5088934;28;20020;-64
2024/01/13 07:50:21;;;;;;;12.80;7.68;;;;;;;;;;5090096;28;20037;-65
2024/01/13 07:52:46;;;;;;;12.48;8.32;;;;;;;;;;5090199;28;20024;-65
2024/01/13 07:55:12;;;;;;;13.93;9.40;;;;;;;;;;5088990;28;20024;-66
2024/01/13 07:57:37;;;;;;;14.07;8.65;;;;;;;;;;5089721;28;20084;-65
2024/01/13 08:00:03;;;;;;;18.30;9.88;;;;;;;;;;5087963;28;20035;-67
2024/01/13 08:02:28;;;;;;;14.90;8.57;;;;;;;;;;5088968;28;20032;-65
2024/01/13 08:04:53;;;;;;;13.80;8.65;;;;;;;;;;5089893;28;20085;-65
2024/01/13 08:07:20;;;;;;;14.90;9.05;;;;;;;;;;5090413;28;20107;-65
2024/01/13 08:09:46;;;;;;;13.57;8.75;;;;;;;;;;5088288;28;20047;-65
2024/01/13 08:12:11;;;;;;;13.57;8.23;;;;;;;;;;5083906;28;20016;-65
2024/01/13 08:14:36;;;;;;;12.15;8.32;;;;;;;;;;5088077;28;20031;-66
2024/01/13 08:17:02;;;;;;;13.48;7.80;;;;;;;;;;5087004;28;20081;-66
2024/01/13 08:19:27;;;;;;;12.43;8.15;;;;;;;;;;5089769;28;21834;-65
2024/01/13 08:21:52;;;;;;;14.70;7.43;;;;;;;;;;5089153;28;20093;-65
2024/01/13 08:24:18;;;;;;;13.00;8.27;;;;;;;;;;5089290;28;20028;-65
2024/01/13 08:26:43;;;;;;;11.60;7.15;;;;;;;;;;5089321;28;20032;-65
2024/01/13 08:29:08;;;;;;;14.80;8.40;;;;;;;;;;5089381;28;20059;-67
2024/01/13 08:31:34;;;;;;;16.02;8.57;;;;;;;;;;5087755;28;20032;-64
2024/01/13 08:33:59;;;;;;;12.25;8.00;;;;;;;;;;5087518;28;20044;-65
2024/01/13 08:36:24;;;;;;;10.77;7.85;;;;;;;;;;5087901;28;20479;-65
2024/01/13 08:38:50;;;;;;;18.00;9.18;;;;;;;;;;5088463;28;20644;-65
2024/01/13 08:41:15;;;;;;;14.40;8.45;;;;;;;;;;5088546;28;20078;-65
2024/01/13 08:43:41;;;;;;;13.32;7.70;;;;;;;;;;5062049;28;20074;-65
2024/01/13 08:46:07;;;;;;;13.23;8.85;;;;;;;;;;5088639;28;20032;-65
2024/01/13 08:48:32;;;;;;;14.48;7.72;;;;;;;;;;5088500;28;20119;-65
2024/01/13 08:50:57;;;;;;;15.63;8.63;;;;;;;;;;5084964;28;20485;-65
2024/01/13 08:53:22;;;;;;;15.77;10.05;;;;;;;;;;5089198;28;20123;-65
2024/01/13 08:55:48;;;;;;;14.03;8.93;;;;;;;;;;5087289;28;20119;-65
2024/01/13 08:58:13;;;;;;;18.00;10.52;;;;;;;;;;5085459;28;20353;-65
2024/01/13 09:00:38;;;;;;;20.60;11.00;;;;;;;;;;5087132;28;20540;-65
2024/01/13 09:03:03;;;;;;;16.33;9.50;;;;;;;;;;5082235;28;20032;-65
2024/01/13 09:05:28;;;;;;;14.27;8.93;;;;;;;;;;5088162;28;20878;-65
2024/01/13 09:07:54;;;;;;;19.23;9.48;;;;;;;;;;5086982;28;20044;-65
2024/01/13 09:10:20;;;;;;;18.20;9.23;;;;;;;;;;5088162;28;20020;-65
2024/01/13 09:12:45;;;;;;;15.13;8.55;;;;;;;;;;5087635;28;20468;-65
2024/01/13 09:15:13;;;;;;;15.85;8.07;;;;;;;;;;5089114;28;20020;-66
2024/01/13 09:17:38;;;;;;;18.33;9.55;;;;;;;;;;5086927;28;20030;-65
2024/01/13 09:20:04;;;;;;;16.05;9.85;;;;;;;;;;5068376;28;20040;-64
2024/01/13 09:22:29;;;;;;;17.05;9.65;;;;;;;;;;5066945;28;20969;-65
2024/01/13 09:24:56;;;;;;;16.88;9.50;;;;;;;;;;5085071;28;20035;-65
2024/01/13 09:27:25;;;;;;;13.95;9.43;;;;;;;;;;5088957;28;20500;-66
2024/01/13 09:29:51;;;;;;;21.90;10.90;;;;;;;;;;5082451;28;20060;-65
2024/01/13 09:32:16;;;;;;;18.42;11.02;;;;;;;;;;5082145;28;20035;-65
2024/01/13 09:34:41;;;;;;;18.63;10.38;;;;;;;;;;5069144;28;20032;-65
2024/01/13 09:37:06;;;;;;;20.50;11.73;;;;;;;;;;5071032;28;20107;-64
2024/01/13 09:39:32;;;;;;;18.67;9.95;;;;;;;;;;5070648;28;20028;-65
2024/01/13 09:41:59;;;;;;;17.90;10.70;;;;;;;;;;5089331;28;20071;-65
2024/01/13 09:44:27;;;;;;;20.55;10.35;;;;;;;;;;5089928;28;20113;-65
2024/01/13 09:46:53;;;;;;;16.90;10.43;;;;;;;;;;5089449;28;20138;-65
2024/01/13 09:49:19;;;;;;;15.75;10.43;;;;;;;;;;5090636;28;20107;-65
2024/01/13 09:51:45;;;;;;;15.15;9.75;;;;;;;;;;5089441;28;20365;-65
2024/01/13 09:54:16;;;;;;;16.92;9.27;;;;;;;;;;5090739;28;20077;-65
2024/01/13 09:56:45;;;;;;;13.95;8.57;;;;;;;;;;5090203;28;20032;-65
2024/01/13 09:59:11;;;;;;;19.95;9.88;;;;;;;;;;5090032;28;20028;-65
2024/01/13 10:01:36;;;;;;;14.35;9.35;;;;;;;;;;5089124;28;20032;-64
2024/01/13 10:04:02;;;;;;;15.82;9.02;;;;;;;;;;5089502;28;20028;-65
2024/01/13 10:06:27;;;;;;;14.43;8.73;;;;;;;;;;5093244;28;20093;-64
2024/01/13 10:08:53;;;;;;;20.70;11.18;;;;;;;;;;5093132;28;20098;-65
2024/01/13 10:11:18;;;;;;;11.80;8.48;;;;;;;;;;5093706;28;20024;-66
2024/01/13 10:13:56;;;;;;;15.35;9.48;;;;;;;;;;5089416;28;20127;-66
2024/01/13 10:16:22;;;;;;;16.30;10.45;;;;;;;;;;5084631;28;20134;-65
2024/01/13 10:18:47;;;;;;;16.60;9.77;;;;;;;;;;5093310;28;20124;-65
2024/01/13 10:21:12;;;;;;;20.02;9.88;;;;;;;;;;5093562;28;20059;-65
2024/01/13 10:23:38;;;;;;;16.67;10.32;;;;;;;;;;5093296;28;20052;-65
2024/01/13 10:26:04;;;;;;;18.40;11.15;;;;;;;;;;5093335;28;20016;-65
2024/01/13 10:28:29;;;;;;;22.17;10.50;;;;;;;;;;5085555;28;20034;-65
2024/01/13 10:30:54;;;;;;;18.63;10.63;;;;;;;;;;5035255;28;20913;-65
2024/01/13 10:33:19;;;;;;;19.25;9.90;;;;;;;;;;5036954;28;20088;-65
2024/01/13 10:35:47;;;;;;;15.00;10.03;;;;;;;;;;5083566;28;20051;-65
2024/01/13 10:38:12;;;;;;;17.83;10.65;;;;;;;;;;5093329;28;20305;-65
2024/01/13 10:40:37;;;;;;;13.80;10.82;;;;;;;;;;5092738;28;20062;-64
2024/01/13 10:43:05;;;;;;;20.30;11.70;;;;;;;;;;5093813;28;20593;-64
2024/01/13 10:45:31;;;;;;;18.05;10.93;;;;;;;;;;5093584;28;20016;-64
2024/01/13 10:48:02;;;;;;;17.10;10.25;;;;;;;;;;5093447;28;20438;-64
2024/01/13 10:50:29;;;;;;;18.25;11.63;;;;;;;;;;5092817;28;20389;-65
2024/01/13 10:53:05;;;;;;;18.75;11.43;;;;;;;;;;5082679;28;20096;-65
2024/01/13 10:55:31;;;;;;;17.15;11.70;;;;;;;;;;5079945;28;20042;-64
2024/01/13 10:57:58;;;;;;;17.08;11.20;;;;;;;;;;5092509;28;20017;-64
2024/01/13 11:00:24;;;;;;;16.45;10.55;;;;;;;;;;5092603;28;20493;-64
2024/01/13 11:02:50;;;;;;;21.77;12.82;;;;;;;;;;5092331;28;20024;-65
2024/01/13 11:05:16;;;;;;;23.17;12.65;;;;;;;;;;5092574;28;20039;-64
2024/01/13 11:07:41;;;;;;;21.00;12.23;;;;;;;;;;5092693;28;20047;-65
2024/01/13 11:10:13;;;;;;;20.73;13.18;;;;;;;;;;5092824;28;20028;-65
2024/01/13 11:12:44;;;;;;;20.95;12.10;;;;;;;;;;5092444;28;20024;-65
2024/01/13 11:15:17;;;;;;;23.58;11.68;;;;;;;;;;5092802;28;20490;-65
2024/01/13 11:17:46;;;;;;;23.67;12.73;;;;;;;;;;5092682;28;20074;-65
2024/01/13 11:20:11;;;;;;;19.92;11.57;;;;;;;;;;5084243;28;20028;-64
2024/01/13 11:22:37;;;;;;;23.70;13.70;;;;;;;;;;5092265;28;20019;-65
2024/01/13 11:25:05;;;;;;;20.00;12.02;;;;;;;;;;5091879;28;20020;-64
2024/01/13 11:27:31;;;;;;;25.42;12.50;;;;;;;;;;5092094;28;20131;-65
2024/01/13 11:29:57;;;;;;;21.95;12.82;;;;;;;;;;5092367;28;20103;-65
2024/01/13 11:32:24;;;;;;;19.05;12.35;;;;;;;;;;5092274;28;20019;-65
2024/01/13 11:34:49;;;;;;;21.73;12.95;;;;;;;;;;5092100;28;20024;-64
2024/01/13 11:37:15;;;;;;;21.67;12.95;;;;;;;;;;5091826;28;20027;-65
2024/01/13 11:39:44;;;;;;;24.73;13.02;;;;;;;;;;5090246;28;20046;-64
2024/01/13 11:42:09;;;;;;;22.13;12.80;;;;;;;;;;5091404;28;20043;-64
2024/01/13 11:44:35;;;;;;;23.52;12.85;;;;;;;;;;5092678;28;20020;-64
2024/01/13 11:47:00;;;;;;;24.33;13.77;;;;;;;;;;5090629;28;20462;-64
2024/01/13 11:49:29;;;;;;;24.13;14.43;;;;;;;;;;5086589;28;20278;-64
2024/01/13 11:51:55;;;;;;;22.00;12.57;;;;;;;;;;5091987;28;20016;-64
2024/01/13 11:54:20;;;;;;;20.60;12.20;;;;;;;;;;5092702;28;20411;-64
2024/01/13 11:56:48;;;;;;;19.73;12.60;;;;;;;;;;5091692;28;20016;-64
2024/01/13 11:59:14;;;;;;;27.90;15.05;;;;;;;;;;5092685;28;20021;-64
2024/01/13 12:01:39;;;;;;;21.02;13.43;;;;;;;;;;5091281;28;20036;-65
2024/01/13 12:04:05;;;;;;;19.40;11.88;;;;;;;;;;5083868;28;20038;-65
2024/01/13 12:06:30;;;;;;;23.65;13.48;;;;;;;;;;5089658;28;20016;-64
2024/01/13 12:08:55;;;;;;;22.63;13.18;;;;;;;;;;5092543;28;20052;-64
2024/01/13 12:11:22;;;;;;;22.27;13.60;;;;;;;;;;5090884;28;20085;-64
2024/01/13 12:13:47;;;;;;;25.23;14.10;;;;;;;;;;5090814;28;20281;-64
2024/01/13 12:16:12;;;;;;;27.40;14.52;;;;;;;;;;5087084;28;20022;-64
2024/01/13 12:18:37;;;;;;;23.80;12.93;;;;;;;;;;5090460;28;20047;-65
2024/01/13 12:21:03;;;;;;;21.60;13.45;;;;;;;;;;5091514;28;20058;-65
2024/01/13 12:23:28;;;;;;;27.40;14.32;;;;;;;;;;5092339;28;20032;-65
2024/01/13 12:25:54;;;;;;;25.88;14.23;;;;;;;;;;5056369;28;20024;-65
2024/01/13 12:28:20;;;;;;;21.83;12.93;;;;;;;;;;5045532;28;20035;-65
2024/01/13 12:30:45;;;;;;;22.13;13.52;;;;;;;;;;5044849;28;20990;-65
2024/01/13 12:33:11;;;;;;;21.80;13.10;;;;;;;;;;5024683;28;21032;-65
2024/01/13 12:35:37;;;;;;;21.02;13.30;;;;;;;;;;5045205;28;20013;-65
2024/01/13 12:38:04;;;;;;;18.30;11.85;;;;;;;;;;5044563;28;20043;-65
2024/01/13 12:40:30;;;;;;;22.45;13.15;;;;;;;;;;5045264;28;20036;-65
2024/01/13 12:42:57;;;;;;;21.30;14.40;;;;;;;;;;5044277;28;20028;-65
2024/01/13 12:45:23;;;;;;;23.00;14.50;;;;;;;;;;5045876;28;20024;-65
2024/01/13 12:47:51;;;;;;;23.95;14.98;;;;;;;;;;5047525;28;20024;-65
2024/01/13 12:50:17;;;;;;;23.90;15.27;;;;;;;;;;5043458;28;20959;-65
2024/01/13 12:52:42;;;;;;;25.45;14.90;;;;;;;;;;5046580;28;20012;-65
2024/01/13 12:55:07;;;;;;;25.20;14.35;;;;;;;;;;5046563;28;20024;-65
2024/01/13 12:57:33;;;;;;;24.80;14.40;;;;;;;;;;5047979;28;20158;-65
2024/01/13 12:59:58;;;;;;;25.52;14.77;;;;;;;;;;5054090;28;20093;-65
2024/01/13 13:02:24;;;;;;;23.70;15.82;;;;;;;;;;5091278;28;20114;-65
2024/01/13 13:04:49;;;;;;;25.13;14.73;;;;;;;;;;5090094;28;20120;-65
2024/01/13 13:07:16;;;;;;;25.33;15.68;;;;;;;;;;5090724;28;20436;-64
2024/01/13 13:09:41;;;;;;;26.75;16.20;;;;;;;;;;5091036;28;20028;-65
2024/01/13 13:12:06;;;;;;;23.88;15.50;;;;;;;;;;5090325;28;20024;-65
2024/01/13 13:14:32;;;;;;;23.80;14.73;;;;;;;;;;5079821;28;20020;-65
2024/01/13 13:16:58;;;;;;;27.52;15.15;;;;;;;;;;5090806;28;20017;-64
2024/01/13 13:19:25;;;;;;;34.75;17.52;;;;;;;;;;5091079;28;20378;-64
2024/01/13 13:21:50;;;;;;;24.95;15.98;;;;;;;;;;5091053;28;20031;-65
2024/01/13 13:24:15;;;;;;;23.27;15.45;;;;;;;;;;5089690;28;20475;-65
2024/01/13 13:26:41;;;;;;;24.15;15.35;;;;;;;;;;5091026;28;20066;-65
2024/01/13 13:29:06;;;;;;;29.58;16.15;;;;;;;;;;5090429;28;20060;-65
2024/01/13 13:31:32;;;;;;;28.63;16.35;;;;;;;;;;5091194;28;20087;-64
2024/01/13 13:33:57;;;;;;;26.15;16.42;;;;;;;;;;5090916;28;20080;-65
2024/01/13 13:36:22;;;;;;;32.13;17.30;;;;;;;;;;5089694;28;20028;-64
2024/01/13 13:38:47;;;;;;;29.63;16.85;;;;;;;;;;5077441;28;20107;-65
2024/01/13 13:41:13;;;;;;;27.92;17.02;;;;;;;;;;5094099;28;20496;-65
2024/01/13 13:43:38;;;;;;;27.27;17.02;;;;;;;;;;5093261;28;20081;-64
2024/01/13 13:46:04;;;;;;;29.67;15.75;;;;;;;;;;5093718;28;20487;-65
2024/01/13 13:48:33;;;;;;;25.23;16.58;;;;;;;;;;5092752;28;20054;-64
2024/01/13 13:50:59;;;;;;;26.45;16.45;;;;;;;;;;5083897;28;20023;-65
2024/01/13 13:53:24;;;;;;;31.80;16.98;;;;;;;;;;5094348;28;20019;-65
2024/01/13 13:55:49;;;;;;;28.00;15.88;;;;;;;;;;5066256;28;20046;-65
2024/01/13 13:58:15;;;;;;;25.20;16.40;;;;;;;;;;5045787;28;20024;-65
2024/01/13 14:00:40;;;;;;;26.80;15.60;;;;;;;;;;5087720;28;20371;-64
2024/01/13 14:03:05;;;;;;;25.08;16.30;;;;;;;;;;5094054;28;20027;-65
2024/01/13 14:05:31;;;;;;;26.65;16.20;;;;;;;;;;5092267;28;20028;-65
2024/01/13 14:07:56;;;;;;;21.70;14.25;;;;;;;;;;5082635;28;20020;-65